Time;durP1;ratioP1;P1;durP2;ratioP2;P2;SDS_P1;SDS_P2;PMS_P1;PMS_P2;Temp;Humidity;BMP_temperature;BMP_pressure;BME280_temperature;BME280_humidity;BME280_pressure;Samples;Min_cycle;Max_cycle;Signal;HPM_P1;HPM_P2
2021/09/09 00:00:22;;;;;;;11.65;9.15;;;23.80;40.80;;;;;;5072920;28;20130;-63
2021/09/09 00:02:48;;;;;;;14.93;9.23;;;23.60;24.50;;;;;;5093017;28;20355;-64
2021/09/09 00:05:14;;;;;;;10.85;8.68;;;23.70;29.20;;;;;;5092858;28;20523;-63
2021/09/09 00:07:39;;;;;;;11.02;9.02;;;23.60;25.50;;;;;;5088326;28;20028;-63
2021/09/09 00:10:06;;;;;;;11.88;9.35;;;23.50;24.10;;;;;;5092770;28;20074;-63
2021/09/09 00:12:31;;;;;;;11.38;8.88;;;23.50;24.30;;;;;;5093547;28;20469;-63
2021/09/09 00:14:57;;;;;;;11.10;8.60;;;23.60;24.60;;;;;;5092136;28;20039;-63
2021/09/09 00:17:23;;;;;;;10.48;9.15;;;23.60;24.80;;;;;;5087434;28;20111;-63
2021/09/09 00:19:48;;;;;;;13.27;8.48;;;23.60;25.60;;;;;;5074985;28;20047;-63
2021/09/09 00:22:14;;;;;;;10.88;8.63;;;23.60;26.80;;;;;;5091562;28;20466;-63
2021/09/09 00:24:40;;;;;;;10.40;8.40;;;23.60;24.00;;;;;;5072368;28;20032;-63
2021/09/09 00:27:06;;;;;;;13.15;8.77;;;23.50;23.60;;;;;;5092159;28;20020;-62
2021/09/09 00:29:31;;;;;;;10.40;8.43;;;23.40;23.60;;;;;;5092953;28;20481;-63
2021/09/09 00:31:57;;;;;;;9.50;8.52;;;23.40;23.60;;;;;;5092053;28;20064;-64
2021/09/09 00:34:22;;;;;;;13.60;8.15;;;23.40;24.70;;;;;;5092944;28;20036;-64
2021/09/09 00:36:48;;;;;;;11.82;8.48;;;23.40;24.30;;;;;;5093252;28;20469;-64
2021/09/09 00:39:14;;;;;;;9.05;7.93;;;23.40;25.30;;;;;;5092946;28;20020;-64
2021/09/09 00:41:39;;;;;;;10.13;8.10;;;23.40;25.30;;;;;;5075817;28;20072;-64
2021/09/09 00:44:18;;;;;;;13.90;8.82;;;23.30;23.70;;;;;;5092522;28;20020;-63
2021/09/09 00:46:55;;;;;;;14.48;8.90;;;23.30;23.80;;;;;;5088203;28;20023;-63
2021/09/09 00:49:21;;;;;;;13.40;8.38;;;23.30;24.00;;;;;;5074541;28;20028;-63
2021/09/09 00:51:46;;;;;;;9.70;7.55;;;23.30;23.80;;;;;;5090199;28;20095;-63
2021/09/09 00:54:12;;;;;;;9.05;8.15;;;23.30;23.50;;;;;;5090075;28;20024;-63
2021/09/09 00:56:37;;;;;;;10.05;8.52;;;23.20;23.50;;;;;;5073709;28;20048;-63
2021/09/09 00:59:03;;;;;;;11.00;8.30;;;23.30;23.30;;;;;;5091847;28;20032;-64
2021/09/09 01:01:29;;;;;;;11.25;8.77;;;23.20;23.50;;;;;;5092053;28;20393;-62
2021/09/09 01:03:54;;;;;;;10.30;7.40;;;23.20;23.10;;;;;;5092605;28;20020;-64
2021/09/09 01:06:29;;;;;;;9.23;8.05;;;23.30;23.40;;;;;;5092192;28;20032;-63
2021/09/09 01:08:55;;;;;;;8.50;7.43;;;23.30;23.60;;;;;;5073114;28;20028;-63
2021/09/09 01:11:20;;;;;;;13.05;8.48;;;23.30;23.50;;;;;;5091786;28;20602;-63
2021/09/09 01:13:50;;;;;;;8.88;7.70;;;23.30;23.40;;;;;;5074489;28;20535;-63
2021/09/09 01:16:16;;;;;;;13.00;8.05;;;23.30;23.40;;;;;;5091911;28;20365;-63
2021/09/09 01:18:41;;;;;;;8.63;7.72;;;23.30;23.40;;;;;;5092565;28;20024;-63
2021/09/09 01:21:07;;;;;;;9.88;7.80;;;23.30;23.60;;;;;;5073688;28;20062;-63
2021/09/09 01:23:35;;;;;;;10.60;8.10;;;23.30;23.80;;;;;;5092057;28;20032;-63
2021/09/09 01:26:01;;;;;;;11.23;8.15;;;23.30;23.90;;;;;;5091613;28;20028;-63
2021/09/09 01:28:26;;;;;;;9.50;7.97;;;23.20;23.90;;;;;;5075013;28;20024;-63
2021/09/09 01:30:52;;;;;;;8.93;7.68;;;23.20;24.10;;;;;;5069458;28;20078;-62
2021/09/09 01:33:18;;;;;;;10.45;7.78;;;23.30;24.00;;;;;;5086221;28;20026;-63
2021/09/09 01:35:44;;;;;;;12.35;7.80;;;23.20;24.10;;;;;;5091362;28;20032;-63
2021/09/09 01:38:23;;;;;;;12.02;7.70;;;23.20;24.10;;;;;;5090856;28;20028;-63
2021/09/09 01:40:49;;;;;;;9.38;7.50;;;23.30;24.50;;;;;;5091794;28;20089;-63
2021/09/09 01:43:14;;;;;;;13.27;8.25;;;23.20;24.30;;;;;;5091743;28;20028;-62
2021/09/09 01:45:40;;;;;;;9.05;8.02;;;23.20;24.50;;;;;;5091957;28;20032;-63
2021/09/09 01:48:06;;;;;;;8.80;7.75;;;23.20;24.30;;;;;;5073232;28;20024;-63
2021/09/09 01:50:32;;;;;;;10.40;8.35;;;23.20;24.30;;;;;;5092293;28;20040;-62
2021/09/09 01:52:58;;;;;;;11.20;8.98;;;23.20;24.30;;;;;;5074503;28;20118;-62
2021/09/09 01:55:23;;;;;;;11.35;8.02;;;23.20;24.60;;;;;;5091530;28;20111;-63
2021/09/09 01:57:49;;;;;;;11.02;7.68;;;23.10;24.50;;;;;;5093602;28;20048;-63
2021/09/09 02:00:15;;;;;;;8.90;8.00;;;23.20;24.90;;;;;;5093941;28;20028;-63
2021/09/09 02:02:41;;;;;;;11.18;8.02;;;23.10;24.80;;;;;;5093530;28;20031;-63
2021/09/09 02:05:08;;;;;;;8.80;7.97;;;23.20;25.20;;;;;;5095254;28;20477;-63
2021/09/09 02:07:33;;;;;;;9.25;8.25;;;23.20;25.10;;;;;;5095713;28;20043;-64
2021/09/09 02:09:59;;;;;;;10.10;8.05;;;23.10;25.30;;;;;;5094163;28;20036;-63
2021/09/09 02:12:24;;;;;;;10.07;8.50;;;23.10;25.40;;;;;;5095784;28;20093;-63
2021/09/09 02:14:50;;;;;;;12.18;7.78;;;23.10;25.50;;;;;;5094641;28;20035;-63
2021/09/09 02:17:16;;;;;;;9.55;8.55;;;23.00;25.30;;;;;;5095232;28;20032;-63
2021/09/09 02:19:41;;;;;;;10.30;8.50;;;23.00;25.20;;;;;;5095629;28;20036;-62
2021/09/09 02:22:07;;;;;;;12.43;8.20;;;23.00;25.60;;;;;;5096102;28;20119;-62
2021/09/09 02:24:32;;;;;;;10.98;8.15;;;23.00;25.30;;;;;;5094904;28;20177;-63
2021/09/09 02:26:58;;;;;;;11.70;8.32;;;22.90;25.70;;;;;;5095509;28;20085;-63
2021/09/09 02:29:45;;;;;;;12.90;8.68;;;23.00;25.90;;;;;;5077395;28;20028;-64
2021/09/09 02:32:11;;;;;;;12.10;8.00;;;23.00;26.20;;;;;;5094772;28;20027;-63
2021/09/09 02:34:37;;;;;;;10.93;7.65;;;23.00;26.30;;;;;;5095609;28;20028;-63
2021/09/09 02:37:03;;;;;;;10.10;7.72;;;23.00;26.20;;;;;;5095312;28;20556;-63
2021/09/09 02:39:29;;;;;;;13.52;9.57;;;22.90;26.40;;;;;;5074731;28;20512;-63
2021/09/09 02:41:55;;;;;;;9.30;7.93;;;22.90;26.60;;;;;;5073883;28;20103;-63
2021/09/09 02:44:20;;;;;;;11.07;7.45;;;22.90;26.50;;;;;;5095085;28;20052;-63
2021/09/09 02:46:46;;;;;;;11.57;7.82;;;22.80;26.90;;;;;;5091177;28;20061;-63
2021/09/09 02:49:11;;;;;;;10.02;8.15;;;22.90;26.90;;;;;;5062908;28;20024;-63
2021/09/09 02:51:37;;;;;;;11.93;8.02;;;22.90;27.10;;;;;;5094012;28;20035;-63
2021/09/09 02:54:02;;;;;;;12.70;8.13;;;22.90;27.20;;;;;;5093325;28;20035;-63
2021/09/09 02:56:28;;;;;;;7.75;6.95;;;22.80;27.00;;;;;;5093388;28;20055;-63
2021/09/09 02:58:57;;;;;;;13.35;8.35;;;22.80;27.60;;;;;;5095365;28;20035;-63
2021/09/09 03:01:23;;;;;;;9.88;8.82;;;22.80;28.00;;;;;;5093615;28;20036;-63
2021/09/09 03:03:48;;;;;;;10.07;7.35;;;22.80;29.60;;;;;;5095523;28;20027;-63
2021/09/09 03:06:14;;;;;;;14.60;7.72;;;22.80;32.10;;;;;;5073885;28;20032;-62
2021/09/09 03:08:39;;;;;;;12.60;8.65;;;22.80;31.50;;;;;;5092190;28;20021;-64
2021/09/09 03:11:05;;;;;;;9.55;8.65;;;22.90;31.40;;;;;;5094548;28;20024;-63
2021/09/09 03:13:31;;;;;;;9.40;8.27;;;22.80;31.40;;;;;;5094889;28;20024;-63
2021/09/09 03:15:56;;;;;;;8.77;7.82;;;22.80;31.70;;;;;;5092945;28;20047;-63
2021/09/09 03:18:22;;;;;;;10.60;8.48;;;22.80;31.30;;;;;;5077975;28;20021;-63
2021/09/09 03:20:47;;;;;;;8.93;8.02;;;22.70;31.30;;;;;;5075307;28;20068;-63
2021/09/09 03:23:13;;;;;;;10.32;7.53;;;22.70;31.40;;;;;;5074782;28;20085;-64
2021/09/09 03:25:38;;;;;;;12.00;8.05;;;22.70;31.60;;;;;;5075659;28;20034;-64
2021/09/09 03:28:04;;;;;;;11.32;7.72;;;22.70;32.20;;;;;;5094010;28;20028;-64
2021/09/09 03:30:30;;;;;;;10.80;8.20;;;22.70;33.20;;;;;;5073477;28;20051;-64
2021/09/09 03:32:56;;;;;;;12.20;8.38;;;22.70;32.60;;;;;;5094727;28;20031;-64
2021/09/09 03:35:22;;;;;;;9.50;7.85;;;22.70;32.20;;;;;;5075442;28;20024;-64
2021/09/09 03:37:47;;;;;;;10.77;8.38;;;22.70;32.00;;;;;;5093825;28;20110;-64
2021/09/09 03:40:13;;;;;;;11.48;8.68;;;22.70;32.00;;;;;;5093084;28;20040;-64
2021/09/09 03:42:39;;;;;;;8.63;7.65;;;22.60;31.40;;;;;;5091811;28;20496;-64
2021/09/09 03:45:05;;;;;;;10.73;8.27;;;22.60;32.00;;;;;;5088129;28;20055;-64
2021/09/09 03:47:31;;;;;;;10.10;8.60;;;22.60;32.10;;;;;;5093626;28;20480;-64
2021/09/09 03:49:57;;;;;;;11.60;7.07;;;22.60;32.70;;;;;;5094202;28;20032;-64
2021/09/09 03:52:24;;;;;;;9.25;7.57;;;22.60;32.40;;;;;;5074864;28;20020;-64
2021/09/09 03:54:49;;;;;;;11.07;7.72;;;22.60;32.20;;;;;;5073575;28;20032;-64
2021/09/09 03:57:15;;;;;;;13.40;7.63;;;22.60;32.20;;;;;;5092428;28;20044;-64
2021/09/09 03:59:41;;;;;;;11.75;7.40;;;22.70;32.00;;;;;;5091896;28;20028;-64
2021/09/09 04:02:07;;;;;;;10.45;7.38;;;22.60;31.50;;;;;;5091450;28;20428;-64
2021/09/09 04:04:32;;;;;;;9.52;7.45;;;22.60;31.40;;;;;;5074450;28;20028;-64
2021/09/09 04:06:58;;;;;;;9.73;7.03;;;22.50;32.10;;;;;;5093290;28;20089;-63
2021/09/09 04:09:24;;;;;;;14.50;8.10;;;22.50;31.40;;;;;;5094077;28;20032;-64
2021/09/09 04:11:50;;;;;;;8.73;7.65;;;22.50;31.00;;;;;;5092916;28;20493;-64
2021/09/09 04:14:16;;;;;;;8.90;7.40;;;22.50;30.50;;;;;;5093289;28;20059;-64
2021/09/09 04:16:42;;;;;;;11.95;7.55;;;22.50;30.10;;;;;;5073875;28;20059;-64
2021/09/09 04:19:08;;;;;;;9.45;7.40;;;22.40;29.50;;;;;;5093248;28;20516;-64
2021/09/09 04:21:33;;;;;;;12.25;8.07;;;22.40;29.40;;;;;;5073428;28;20040;-64
2021/09/09 04:23:59;;;;;;;10.60;7.65;;;22.40;29.60;;;;;;5074460;28;20470;-64
2021/09/09 04:26:25;;;;;;;10.60;8.50;;;22.30;29.70;;;;;;5092607;28;20036;-63
2021/09/09 04:28:50;;;;;;;10.70;7.38;;;22.30;29.50;;;;;;5092938;28;20032;-64
2021/09/09 04:31:16;;;;;;;13.05;7.60;;;22.30;29.70;;;;;;5091971;28;20550;-64
2021/09/09 04:33:41;;;;;;;13.40;8.48;;;22.20;29.80;;;;;;5093175;28;20028;-63
2021/09/09 04:36:07;;;;;;;9.63;7.65;;;22.20;29.80;;;;;;5092261;28;20382;-62
2021/09/09 04:38:33;;;;;;;9.88;7.85;;;22.20;29.90;;;;;;5093372;28;20388;-63
2021/09/09 04:40:59;;;;;;;12.38;7.82;;;22.20;29.80;;;;;;5092222;28;20506;-64
2021/09/09 04:43:24;;;;;;;10.13;8.18;;;22.20;29.90;;;;;;5075930;28;20020;-63
2021/09/09 04:45:50;;;;;;;9.63;7.57;;;22.20;30.00;;;;;;5089801;28;20036;-63
2021/09/09 04:48:16;;;;;;;11.82;8.00;;;22.10;29.90;;;;;;5092914;28;20485;-63
2021/09/09 04:50:41;;;;;;;13.18;8.25;;;22.10;30.10;;;;;;5092291;28;20032;-63
2021/09/09 04:53:07;;;;;;;11.68;7.80;;;22.20;30.20;;;;;;5091676;28;20025;-63
2021/09/09 04:55:33;;;;;;;11.18;8.15;;;22.10;30.20;;;;;;5091394;28;20028;-64
2021/09/09 04:57:58;;;;;;;9.73;8.38;;;22.20;30.20;;;;;;5091926;28;20063;-63
2021/09/09 05:00:24;;;;;;;9.27;7.65;;;22.10;30.00;;;;;;5092107;28;20036;-64
2021/09/09 05:02:50;;;;;;;11.20;7.95;;;22.20;30.00;;;;;;5074319;28;20028;-63
2021/09/09 05:05:16;;;;;;;9.88;8.00;;;22.30;30.00;;;;;;5092264;28;20032;-64
2021/09/09 05:07:41;;;;;;;11.38;8.45;;;22.30;30.30;;;;;;5088802;28;20031;-63
2021/09/09 05:10:08;;;;;;;11.40;8.55;;;22.30;30.00;;;;;;5085677;28;20104;-64
2021/09/09 05:12:34;;;;;;;10.85;8.20;;;22.30;30.00;;;;;;5088507;28;20028;-63
2021/09/09 05:14:59;;;;;;;10.48;8.05;;;22.30;30.00;;;;;;5093127;28;20036;-64
2021/09/09 05:17:25;;;;;;;13.85;8.43;;;22.30;30.00;;;;;;5088924;28;20032;-64
2021/09/09 05:19:51;;;;;;;13.52;8.52;;;22.40;30.00;;;;;;5091758;28;20021;-63
2021/09/09 05:22:16;;;;;;;12.65;8.35;;;22.40;30.00;;;;;;5091670;28;20373;-63
2021/09/09 05:24:42;;;;;;;11.85;8.05;;;22.40;30.00;;;;;;5087335;28;20064;-64
2021/09/09 05:27:07;;;;;;;10.95;8.50;;;22.40;30.10;;;;;;5090934;28;20129;-64
2021/09/09 05:29:33;;;;;;;10.25;8.55;;;22.40;30.10;;;;;;5091639;28;20525;-64
2021/09/09 05:31:59;;;;;;;10.32;8.20;;;22.30;30.00;;;;;;5072902;28;20058;-64
2021/09/09 05:34:24;;;;;;;10.40;8.98;;;22.30;30.00;;;;;;5087182;28;20359;-63
2021/09/09 05:36:50;;;;;;;10.57;9.02;;;22.40;30.40;;;;;;5091837;28;20047;-64
2021/09/09 05:39:15;;;;;;;18.90;8.90;;;22.40;30.60;;;;;;5091787;28;20536;-64
2021/09/09 05:41:41;;;;;;;13.07;8.48;;;22.40;31.20;;;;;;5091590;28;20064;-64
2021/09/09 05:44:07;;;;;;;17.00;8.80;;;22.40;30.10;;;;;;5088897;28;20029;-63
2021/09/09 05:46:32;;;;;;;15.57;9.63;;;22.40;30.40;;;;;;5089239;28;20029;-64
2021/09/09 05:48:58;;;;;;;14.07;9.13;;;22.30;30.40;;;;;;5091220;28;20416;-63
2021/09/09 05:51:24;;;;;;;14.13;9.23;;;22.30;30.90;;;;;;5071673;28;20507;-63
2021/09/09 05:53:49;;;;;;;10.80;9.45;;;22.30;31.30;;;;;;5072811;28;20021;-63
2021/09/09 05:56:15;;;;;;;15.50;10.07;;;22.30;32.00;;;;;;5091038;28;20081;-63
2021/09/09 05:58:41;;;;;;;11.23;9.82;;;22.30;32.40;;;;;;5086572;28;20039;-63
2021/09/09 06:01:07;;;;;;;12.45;9.60;;;22.40;32.60;;;;;;5087187;28;20036;-63
2021/09/09 06:03:35;;;;;;;12.02;9.82;;;22.40;32.80;;;;;;5089999;28;20428;-63
2021/09/09 06:06:06;;;;;;;13.32;9.85;;;22.50;33.00;;;;;;5092083;28;20059;-63
2021/09/09 06:08:33;;;;;;;13.95;10.25;;;22.50;33.00;;;;;;5072869;28;20036;-63
2021/09/09 06:10:59;;;;;;;14.98;10.65;;;22.60;33.00;;;;;;5088182;28;20047;-63
2021/09/09 06:13:25;;;;;;;13.43;9.77;;;22.70;33.40;;;;;;5087610;28;20020;-63
2021/09/09 06:15:50;;;;;;;14.52;10.75;;;22.60;33.60;;;;;;5090093;28;20035;-63
2021/09/09 06:18:16;;;;;;;12.63;10.95;;;22.60;33.80;;;;;;5091265;28;20020;-63
2021/09/09 06:20:41;;;;;;;12.82;10.52;;;22.60;34.00;;;;;;5087752;28;20040;-64
2021/09/09 06:23:07;;;;;;;13.70;11.48;;;22.70;34.50;;;;;;5084014;28;20024;-63
2021/09/09 06:25:33;;;;;;;13.98;10.75;;;22.70;35.00;;;;;;5087847;28;20040;-63
2021/09/09 06:27:58;;;;;;;13.05;9.32;;;22.80;35.10;;;;;;5088224;28;20032;-64
2021/09/09 06:30:24;;;;;;;13.23;11.00;;;22.80;35.40;;;;;;5090498;28;20028;-64
2021/09/09 06:32:49;;;;;;;12.60;10.90;;;22.70;35.60;;;;;;5069538;28;20103;-64
2021/09/09 06:35:15;;;;;;;12.80;10.07;;;22.80;36.10;;;;;;5087662;28;20030;-64
2021/09/09 06:37:41;;;;;;;14.98;10.48;;;22.80;36.10;;;;;;5090759;28;20046;-64
2021/09/09 06:40:07;;;;;;;16.90;10.40;;;22.90;36.10;;;;;;5090317;28;20077;-64
2021/09/09 06:42:33;;;;;;;16.80;10.98;;;23.00;36.60;;;;;;5085485;28;20521;-64
2021/09/09 06:44:59;;;;;;;17.83;9.70;;;23.00;36.70;;;;;;5087207;28;20067;-64
2021/09/09 06:47:24;;;;;;;10.73;8.95;;;23.00;36.80;;;;;;5093364;28;20669;-64
2021/09/09 06:49:50;;;;;;;12.32;10.00;;;22.90;37.90;;;;;;5093713;28;20471;-64
2021/09/09 06:52:16;;;;;;;16.90;10.25;;;23.00;38.10;;;;;;5094079;28;20028;-64
2021/09/09 06:54:42;;;;;;;13.52;9.43;;;22.90;38.70;;;;;;5095761;28;20016;-65
2021/09/09 06:57:08;;;;;;;11.55;8.90;;;22.90;38.90;;;;;;5094566;28;20393;-64
2021/09/09 06:59:33;;;;;;;10.40;9.05;;;22.80;39.30;;;;;;5095388;28;20031;-64
2021/09/09 07:01:59;;;;;;;11.20;10.00;;;22.80;40.00;;;;;;5094408;28;20065;-65
2021/09/09 07:04:25;;;;;;;11.30;7.88;;;22.90;40.50;;;;;;5094781;28;20016;-64
2021/09/09 07:06:50;;;;;;;8.98;8.10;;;23.00;37.20;;;;;;5093666;28;20036;-64
2021/09/09 07:09:16;;;;;;;8.85;7.88;;;23.10;36.20;;;;;;5094491;28;20028;-65
2021/09/09 07:11:42;;;;;;;9.90;7.75;;;23.10;35.70;;;;;;5076256;28;20027;-64
2021/09/09 07:14:08;;;;;;;12.32;8.73;;;23.10;35.60;;;;;;5075005;28;20035;-64
2021/09/09 07:16:33;;;;;;;11.40;9.13;;;23.00;35.20;;;;;;5066467;28;20037;-64
2021/09/09 07:18:59;;;;;;;9.35;7.70;;;22.90;35.10;;;;;;5094332;28;20362;-64
2021/09/09 07:21:25;;;;;;;13.75;8.75;;;22.70;35.40;;;;;;5093069;28;20430;-64
2021/09/09 07:23:50;;;;;;;12.63;8.68;;;22.70;35.60;;;;;;5094834;28;20020;-64
2021/09/09 07:26:16;;;;;;;12.52;9.68;;;22.80;35.30;;;;;;5093405;28;20107;-64
2021/09/09 07:28:42;;;;;;;24.25;10.45;;;22.60;34.20;;;;;;5092790;28;20110;-64
2021/09/09 07:31:08;;;;;;;18.88;9.75;;;22.80;35.00;;;;;;5094083;28;20359;-64
2021/09/09 07:33:34;;;;;;;14.82;10.38;;;22.90;34.40;;;;;;5094824;28;20032;-64
2021/09/09 07:35:59;;;;;;;15.00;9.57;;;22.90;34.00;;;;;;5093546;28;20454;-64
2021/09/09 07:38:26;;;;;;;13.90;9.00;;;23.10;34.10;;;;;;5087859;28;20020;-64
2021/09/09 07:40:52;;;;;;;10.27;8.63;;;23.20;33.50;;;;;;5093653;28;20101;-64
2021/09/09 07:43:17;;;;;;;14.40;8.93;;;23.30;32.70;;;;;;5094832;28;20458;-64
2021/09/09 07:45:43;;;;;;;10.65;8.50;;;23.30;32.60;;;;;;5093597;28;20481;-64
2021/09/09 07:48:09;;;;;;;10.95;8.45;;;23.20;32.00;;;;;;5094101;28;20028;-64
2021/09/09 07:50:35;;;;;;;11.68;8.45;;;23.20;32.60;;;;;;5093378;28;20069;-64
2021/09/09 07:53:01;;;;;;;12.05;9.27;;;23.20;31.70;;;;;;5093700;28;20080;-64
2021/09/09 07:55:27;;;;;;;11.57;8.23;;;23.20;32.10;;;;;;5075045;28;20057;-64
2021/09/09 07:57:53;;;;;;;11.43;8.20;;;23.20;32.10;;;;;;5093671;28;20135;-64
2021/09/09 08:00:18;;;;;;;13.57;9.23;;;23.30;31.40;;;;;;5094378;28;20120;-64
2021/09/09 08:02:44;;;;;;;12.68;8.43;;;23.20;30.90;;;;;;5093314;28;20119;-64
2021/09/09 08:05:10;;;;;;;14.65;9.18;;;23.30;30.70;;;;;;5092392;28;20115;-64
2021/09/09 08:07:45;;;;;;;8.68;7.35;;;23.40;30.20;;;;;;5091693;28;20028;-64
2021/09/09 08:10:13;;;;;;;11.57;7.25;;;23.60;28.90;;;;;;5071096;28;20029;-64
2021/09/09 08:12:40;;;;;;;11.10;8.23;;;23.70;29.20;;;;;;5091041;28;20022;-64
2021/09/09 08:15:07;;;;;;;11.93;7.95;;;23.80;28.40;;;;;;5094412;28;20107;-64
2021/09/09 08:17:33;;;;;;;13.18;8.20;;;23.80;28.50;;;;;;5075227;28;20024;-64
2021/09/09 08:19:59;;;;;;;18.58;9.27;;;23.90;28.50;;;;;;5093068;28;20042;-64
2021/09/09 08:22:26;;;;;;;18.05;8.55;;;23.80;28.10;;;;;;5090810;28;20036;-64
2021/09/09 08:24:52;;;;;;;14.10;9.30;;;24.00;28.00;;;;;;5073491;28;20028;-64
2021/09/09 08:27:18;;;;;;;10.18;8.23;;;24.00;27.30;;;;;;5092427;28;20036;-64
2021/09/09 08:29:44;;;;;;;10.23;7.88;;;24.00;27.50;;;;;;5093935;28;20031;-64
2021/09/09 08:32:09;;;;;;;12.73;8.82;;;24.00;27.50;;;;;;5074428;28;20386;-64
2021/09/09 08:34:35;;;;;;;9.40;7.43;;;24.00;27.60;;;;;;5093653;28;20024;-65
2021/09/09 08:37:01;;;;;;;10.73;6.97;;;23.90;26.90;;;;;;5092745;28;20028;-65
2021/09/09 08:39:27;;;;;;;12.43;6.85;;;24.00;27.10;;;;;;5093539;28;20028;-64
2021/09/09 08:41:52;;;;;;;13.10;7.88;;;23.90;26.50;;;;;;5092919;28;20367;-65
2021/09/09 08:44:18;;;;;;;8.57;7.15;;;23.80;26.30;;;;;;5093600;28;20405;-65
2021/09/09 08:46:44;;;;;;;8.68;6.50;;;23.80;26.40;;;;;;5092677;28;20043;-64
2021/09/09 08:49:10;;;;;;;10.15;6.75;;;23.80;26.20;;;;;;5093049;28;20028;-64
2021/09/09 08:51:36;;;;;;;10.93;6.63;;;23.90;25.90;;;;;;5092794;28;20035;-64
2021/09/09 08:54:02;;;;;;;9.32;6.20;;;23.90;25.60;;;;;;5093374;28;20024;-64
2021/09/09 08:56:28;;;;;;;10.35;5.93;;;23.90;25.10;;;;;;5074212;28;20324;-64
2021/09/09 08:58:54;;;;;;;7.80;6.18;;;24.00;24.70;;;;;;5092979;28;20028;-64
2021/09/09 09:01:19;;;;;;;6.63;5.45;;;24.00;25.00;;;;;;5092543;28;20458;-64
2021/09/09 09:03:49;;;;;;;10.52;5.70;;;24.10;24.60;;;;;;5093115;28;20013;-64
2021/09/09 09:06:27;;;;;;;8.30;6.05;;;24.10;24.10;;;;;;5091616;28;20055;-64
2021/09/09 09:09:03;;;;;;;8.60;6.38;;;24.00;24.00;;;;;;5073132;28;20485;-64
2021/09/09 09:11:36;;;;;;;11.68;6.55;;;24.10;24.30;;;;;;5071596;28;20028;-64
2021/09/09 09:14:02;;;;;;;7.38;6.45;;;24.20;23.90;;;;;;5093457;28;20422;-64
2021/09/09 09:16:29;;;;;;;8.57;6.30;;;24.20;23.80;;;;;;5073694;28;20504;-64
2021/09/09 09:18:59;;;;;;;9.68;6.07;;;24.30;24.00;;;;;;5092933;28;20036;-64
2021/09/09 09:21:27;;;;;;;10.00;6.35;;;24.30;23.50;;;;;;5092095;28;20032;-64
2021/09/09 09:23:59;;;;;;;7.68;5.35;;;24.40;22.80;;;;;;5092900;28;20047;-64
2021/09/09 09:26:26;;;;;;;13.45;5.90;;;24.40;22.40;;;;;;5091861;28;20028;-64
2021/09/09 09:28:54;;;;;;;12.05;6.00;;;24.50;22.30;;;;;;5092323;28;20448;-65
2021/09/09 09:31:25;;;;;;;15.18;5.80;;;24.60;22.30;;;;;;5074097;28;20020;-65
2021/09/09 09:33:55;;;;;;;6.97;5.65;;;24.60;22.10;;;;;;5093151;28;20027;-65
2021/09/09 09:36:31;;;;;;;7.82;6.28;;;24.70;21.80;;;;;;5091393;28;20042;-65
2021/09/09 09:39:11;;;;;;;6.93;5.00;;;24.80;21.50;;;;;;5092542;28;20077;-64
2021/09/09 09:41:39;;;;;;;5.90;5.25;;;25.00;20.70;;;;;;5091343;28;20190;-63
2021/09/09 09:44:09;;;;;;;7.20;5.70;;;25.00;21.30;;;;;;5092657;28;20615;-63
2021/09/09 09:46:41;;;;;;;8.85;6.40;;;25.00;21.10;;;;;;5086259;28;20039;-63
2021/09/09 09:49:25;;;;;;;9.52;6.55;;;25.10;20.80;;;;;;5076285;28;20121;-63
2021/09/09 09:51:53;;;;;;;12.93;7.97;;;25.20;20.30;;;;;;5091542;28;20035;-64
2021/09/09 09:54:20;;;;;;;8.18;6.20;;;25.30;20.60;;;;;;5092494;28;20032;-63
2021/09/09 09:56:47;;;;;;;7.97;6.28;;;25.60;20.80;;;;;;5091590;28;20049;-64
2021/09/09 09:59:13;;;;;;;9.98;7.05;;;25.70;20.50;;;;;;5092242;28;20032;-64
2021/09/09 10:01:40;;;;;;;10.38;7.78;;;25.80;20.30;;;;;;5085945;28;20036;-64
2021/09/09 10:04:11;;;;;;;10.32;6.55;;;26.10;20.00;;;;;;5091326;28;20060;-64
2021/09/09 10:06:36;;;;;;;12.02;6.60;;;26.10;19.40;;;;;;5089647;28;20036;-64
2021/09/09 10:09:04;;;;;;;16.52;10.20;;;26.00;19.60;;;;;;5090473;28;20444;-65
2021/09/09 10:11:31;;;;;;;13.40;8.82;;;26.00;19.00;;;;;;5075798;28;20079;-65
2021/09/09 10:13:58;;;;;;;12.15;7.15;;;25.90;19.40;;;;;;5037803;28;20028;-64
2021/09/09 10:16:26;;;;;;;9.85;6.82;;;25.90;20.00;;;;;;5075851;28;20040;-65
2021/09/09 10:19:04;;;;;;;9.80;6.70;;;25.80;19.30;;;;;;5096460;28;20109;-64
2021/09/09 10:21:39;;;;;;;7.82;6.05;;;25.80;19.60;;;;;;5094692;28;20085;-65
2021/09/09 10:24:20;;;;;;;7.32;6.32;;;25.90;19.50;;;;;;5096347;28;20032;-64
2021/09/09 10:26:49;;;;;;;8.65;6.65;;;25.90;18.70;;;;;;5076632;28;20137;-65
2021/09/09 10:29:43;;;;;;;8.82;6.28;;;26.00;18.80;;;;;;5096190;28;20114;-65
2021/09/09 10:32:29;;;;;;;9.57;6.47;;;26.00;18.60;;;;;;5075926;28;20039;-65
2021/09/09 10:35:17;;;;;;;13.75;6.22;;;26.10;18.90;;;;;;5079783;28;20454;-65
2021/09/09 10:37:47;;;;;;;8.43;7.60;;;26.10;18.60;;;;;;5088561;28;20481;-65
2021/09/09 10:40:28;;;;;;;8.32;6.45;;;26.10;18.60;;;;;;5077359;28;20059;-65
2021/09/09 10:42:58;;;;;;;8.55;6.38;;;26.10;17.50;;;;;;5094010;28;20040;-65
2021/09/09 10:45:45;;;;;;;9.63;7.68;;;26.10;18.40;;;;;;5095855;28;20386;-64
2021/09/09 10:48:20;;;;;;;8.15;6.78;;;26.20;18.50;;;;;;5095121;28;20334;-65
2021/09/09 10:51:02;;;;;;;7.90;7.10;;;26.30;18.20;;;;;;5095458;28;20312;-65
2021/09/09 10:53:39;;;;;;;8.07;7.07;;;26.30;18.30;;;;;;5075911;28;20043;-65
2021/09/09 10:56:25;;;;;;;12.43;8.15;;;26.30;18.70;;;;;;5095545;28;20052;-65
2021/09/09 10:59:14;;;;;;;10.07;8.23;;;26.40;18.70;;;;;;5075498;28;20074;-65
2021/09/09 11:01:44;;;;;;;12.35;9.00;;;26.40;18.40;;;;;;5078623;28;20065;-64
2021/09/09 11:04:32;;;;;;;9.07;7.22;;;26.40;18.80;;;;;;5094761;28;20492;-64
2021/09/09 11:06:59;;;;;;;8.80;7.07;;;26.50;19.10;;;;;;5093596;28;20078;-64
2021/09/09 11:09:25;;;;;;;8.90;6.63;;;26.50;18.40;;;;;;5092287;28;20024;-64
2021/09/09 11:12:03;;;;;;;18.45;10.55;;;26.60;18.00;;;;;;5093451;28;20032;-63
2021/09/09 11:14:31;;;;;;;11.43;8.02;;;26.60;17.90;;;;;;5095375;28;20034;-64
2021/09/09 11:16:57;;;;;;;10.98;8.68;;;26.60;18.00;;;;;;5094358;28;20043;-65
2021/09/09 11:19:23;;;;;;;11.32;9.98;;;26.70;18.30;;;;;;5094950;28;20048;-64
2021/09/09 11:21:50;;;;;;;12.82;9.40;;;26.90;18.00;;;;;;5094432;28;20032;-65
2021/09/09 11:24:17;;;;;;;8.90;8.00;;;27.10;18.90;;;;;;5094961;28;20027;-65
2021/09/09 11:26:46;;;;;;;11.32;8.32;;;27.00;18.10;;;;;;5072123;28;20032;-65
2021/09/09 11:29:12;;;;;;;12.27;8.13;;;27.20;17.90;;;;;;5075018;28;20454;-65
2021/09/09 11:31:55;;;;;;;9.55;8.55;;;27.20;17.60;;;;;;5076285;28;20053;-65
2021/09/09 11:34:32;;;;;;;9.05;7.00;;;27.30;16.90;;;;;;5095191;28;20024;-65
2021/09/09 11:37:03;;;;;;;12.63;8.00;;;27.60;16.50;;;;;;5075630;28;20028;-65
2021/09/09 11:39:33;;;;;;;7.93;6.90;;;27.80;21.90;;;;;;5075466;28;20616;-65
2021/09/09 11:41:59;;;;;;;10.00;7.30;;;27.70;16.40;;;;;;5093821;28;20066;-65
2021/09/09 11:44:36;;;;;;;13.85;6.75;;;27.90;16.40;;;;;;5076674;28;20478;-64
2021/09/09 11:47:11;;;;;;;10.35;6.15;;;;;;;;;;5075558;28;20055;-64
2021/09/09 11:49:36;;;;;;;8.13;6.40;;;28.90;38.00;;;;;;5087589;28;20031;-65
2021/09/09 11:52:05;;;;;;;9.40;6.78;;;29.00;19.60;;;;;;5085993;28;20028;-65
2021/09/09 11:54:33;;;;;;;9.75;6.80;;;29.30;20.00;;;;;;5076567;28;20035;-65
2021/09/09 11:57:11;;;;;;;7.85;7.13;;;29.70;20.00;;;;;;5093336;28;20494;-65
2021/09/09 11:59:54;;;;;;;10.73;8.27;;;29.50;20.80;;;;;;5068038;28;20482;-65
2021/09/09 12:02:30;;;;;;;13.30;7.70;;;29.70;22.30;;;;;;5086047;28;20131;-64
2021/09/09 12:04:58;;;;;;;8.93;6.93;;;31.30;26.10;;;;;;5094386;28;20081;-65
2021/09/09 12:07:29;;;;;;;7.20;6.57;;;30.50;28.60;;;;;;5073527;28;20046;-63
2021/09/09 12:09:59;;;;;;;8.70;6.90;;;30.20;24.50;;;;;;5093287;28;20024;-63
2021/09/09 12:12:30;;;;;;;10.10;7.15;;;30.20;23.80;;;;;;5088575;28;20032;-62
2021/09/09 12:15:02;;;;;;;7.38;6.68;;;31.00;21.00;;;;;;5087342;28;20016;-65
2021/09/09 12:17:29;;;;;;;9.20;6.05;;;32.60;20.50;;;;;;5092240;28;20058;-65
2021/09/09 12:20:05;;;;;;;7.60;6.72;;;33.00;23.30;;;;;;5093228;28;20446;-63
2021/09/09 12:23:01;;;;;;;8.10;7.30;;;34.20;17.80;;;;;;5092325;28;20347;-63
2021/09/09 12:25:26;;;;;;;8.30;7.60;;;34.00;22.30;;;;;;5093019;28;20111;-64
2021/09/09 12:28:14;;;;;;;8.18;7.05;;;34.60;14.40;;;;;;5092498;28;20028;-64
2021/09/09 12:30:51;;;;;;;7.68;7.03;;;34.30;7.90;;;;;;5093869;28;20023;-64
2021/09/09 12:33:32;;;;;;;8.13;6.72;;;;;;;;;;5092618;28;20036;-64
2021/09/09 12:36:04;;;;;;;7.70;6.97;;;;;;;;;;5093973;28;20437;-64
2021/09/09 12:38:47;;;;;;;8.63;7.35;;;38.40;6.00;;;;;;5073568;28;20027;-64
2021/09/09 12:41:22;;;;;;;8.15;7.22;;;38.30;6.50;;;;;;5073253;28;20498;-64
2021/09/09 12:43:54;;;;;;;7.60;6.93;;;40.00;5.10;;;;;;5092463;28;20032;-66